createdAt,value
2018-07-23T00:00:58.900Z,28.40
2018-07-23T00:03:40.032Z,32.63
2018-07-23T00:06:08.941Z,31.70
2018-07-23T00:08:49.417Z,33.10
2018-07-23T00:11:30.162Z,30.67
2018-07-23T00:14:11.001Z,32.20
2018-07-23T00:16:51.736Z,29.53
2018-07-23T00:19:32.742Z,31.30
2018-07-23T00:22:13.588Z,33.20
2018-07-23T00:24:54.565Z,28.23
2018-07-23T00:27:35.416Z,26.10
2018-07-23T00:30:16.362Z,31.77
2018-07-23T00:32:57.087Z,31.97
2018-07-23T00:35:37.887Z,29.03
2018-07-23T00:38:18.773Z,29.33
2018-07-23T00:40:59.424Z,33.63
2018-07-23T00:43:40.100Z,32.13
2018-07-23T00:46:20.824Z,34.03
2018-07-23T00:49:01.671Z,33.93
2018-07-23T00:51:42.865Z,31.63
2018-07-23T00:54:23.682Z,30.33
2018-07-23T00:57:04.613Z,32.10
2018-07-23T00:59:45.217Z,35.97
2018-07-23T01:02:26.122Z,33.23
2018-07-23T01:05:07.041Z,29.07
2018-07-23T01:07:47.706Z,31.70
2018-07-23T01:10:28.471Z,29.67
2018-07-23T01:13:09.213Z,26.17
2018-07-23T01:15:50.073Z,28.00
2018-07-23T01:18:30.619Z,25.50
2018-07-23T01:21:11.466Z,25.33
2018-07-23T01:23:52.200Z,28.17
2018-07-23T01:26:33.309Z,23.83
2018-07-23T01:29:14.068Z,24.80
2018-07-23T01:31:54.986Z,25.17
2018-07-23T01:34:35.792Z,22.50
2018-07-23T01:37:17.178Z,22.60
2018-07-23T01:39:57.676Z,23.60
2018-07-23T01:42:38.819Z,23.40
2018-07-23T01:45:19.814Z,28.60
2018-07-23T01:48:00.681Z,26.47
2018-07-23T01:50:41.762Z,25.50
2018-07-23T01:53:22.574Z,21.80
2018-07-23T01:56:04.272Z,22.70
2018-07-23T01:58:44.891Z,24.57
2018-07-23T02:01:26.003Z,22.93
2018-07-23T02:04:07.239Z,23.53
2018-07-23T02:06:47.895Z,20.93
2018-07-23T02:09:29.022Z,20.03
2018-07-23T02:12:09.553Z,22.40
2018-07-23T02:14:56.528Z,21.87
2018-07-23T02:17:43.140Z,22.87
2018-07-23T02:20:30.068Z,25.50
2018-07-23T02:23:17.117Z,21.37
2018-07-23T02:26:03.844Z,25.73
2018-07-23T02:28:50.380Z,27.03
2018-07-23T02:31:30.092Z,25.43
2018-07-23T02:34:16.835Z,26.00
2018-07-23T02:37:03.476Z,25.07
2018-07-23T02:39:50.321Z,25.47
2018-07-23T02:42:36.952Z,27.00
2018-07-23T02:45:23.669Z,26.30
2018-07-23T02:48:10.406Z,28.17
2018-07-23T02:50:57.166Z,32.80
2018-07-23T02:53:43.906Z,31.57
2018-07-23T02:56:30.486Z,27.77
2018-07-23T02:59:17.331Z,25.13
2018-07-23T03:02:03.910Z,30.53
2018-07-23T03:04:50.563Z,28.93
2018-07-23T03:07:37.314Z,29.13
2018-07-23T03:10:23.839Z,33.87
2018-07-23T03:13:10.360Z,29.50
2018-07-23T03:15:56.942Z,29.00
2018-07-23T03:18:43.427Z,24.40
2018-07-23T03:21:30.059Z,24.47
2018-07-23T03:24:16.876Z,23.43
2018-07-23T03:27:03.416Z,27.13
2018-07-23T03:29:50.019Z,26.70
2018-07-23T03:32:36.776Z,24.67
2018-07-23T03:35:23.312Z,26.77
2018-07-23T03:38:10.052Z,28.00
2018-07-23T03:40:56.677Z,24.87
2018-07-23T03:43:43.370Z,29.20
2018-07-23T03:46:30.124Z,27.03
2018-07-23T03:49:16.664Z,27.23
2018-07-23T03:52:03.365Z,28.77
2018-07-23T03:54:50.115Z,22.83
2018-07-23T03:57:36.833Z,24.47
2018-07-23T04:00:23.689Z,28.33
2018-07-23T04:03:10.301Z,27.63
2018-07-23T04:05:57.087Z,31.93
2018-07-23T04:08:43.485Z,22.70
2018-07-23T04:11:30.266Z,24.83
2018-07-23T04:14:16.861Z,24.37
2018-07-23T04:17:03.610Z,23.33
2018-07-23T04:19:50.280Z,29.30
2018-07-23T04:22:37.314Z,29.83
2018-07-23T04:25:23.895Z,29.07
2018-07-23T04:28:10.464Z,25.30
2018-07-23T04:30:57.205Z,28.17
2018-07-23T04:33:43.742Z,25.50
2018-07-23T04:36:30.364Z,34.63
2018-07-23T04:39:17.091Z,33.80
2018-07-23T04:42:03.725Z,28.23
2018-07-23T04:44:50.686Z,23.73
2018-07-23T04:47:37.071Z,27.70
2018-07-23T04:50:23.684Z,36.20
2018-07-23T04:53:10.348Z,26.70
2018-07-23T04:55:56.968Z,30.10
2018-07-23T04:58:43.504Z,31.97
2018-07-23T05:01:30.424Z,34.17
2018-07-23T05:04:17.076Z,30.60
2018-07-23T05:07:03.658Z,31.73
2018-07-23T05:09:50.414Z,29.23
2018-07-23T05:12:37.260Z,28.30
2018-07-23T05:15:23.985Z,32.20
2018-07-23T05:18:10.686Z,27.10
2018-07-23T05:20:57.358Z,26.30
2018-07-23T05:23:45.063Z,31.63
2018-07-23T05:26:31.681Z,30.73
2018-07-23T05:29:18.557Z,28.00
2018-07-23T05:32:05.473Z,30.60
2018-07-23T05:34:52.137Z,27.07
2018-07-23T05:37:38.414Z,29.43
2018-07-23T05:40:25.271Z,26.80
2018-07-23T05:43:11.777Z,29.67
2018-07-23T05:45:58.524Z,28.40
2018-07-23T05:48:45.233Z,24.20
2018-07-23T05:51:32.107Z,25.57
2018-07-23T05:54:18.893Z,27.17
2018-07-23T05:57:05.723Z,31.37
2018-07-23T05:59:52.488Z,29.50
2018-07-23T06:02:39.067Z,29.63
2018-07-23T06:05:26.797Z,31.13
2018-07-23T06:08:13.562Z,29.20
2018-07-23T06:11:00.177Z,27.97
2018-07-23T06:13:47.178Z,24.97
2018-07-23T06:16:33.708Z,30.87
2018-07-23T06:19:20.301Z,29.50
2018-07-23T06:22:07.048Z,36.07
2018-07-23T06:24:53.648Z,29.63
2018-07-23T06:27:40.319Z,29.83
2018-07-23T06:30:26.970Z,30.40
2018-07-23T06:33:13.485Z,29.50
2018-07-23T06:36:00.340Z,30.80
2018-07-23T06:38:47.045Z,27.63
2018-07-23T06:41:33.913Z,36.50
2018-07-23T06:44:20.411Z,27.27
2018-07-23T06:47:07.149Z,31.70
2018-07-23T06:49:53.686Z,27.23
2018-07-23T06:52:40.314Z,31.37
2018-07-23T06:55:26.795Z,31.10
2018-07-23T06:58:13.633Z,31.13
2018-07-23T07:01:00.210Z,33.90
2018-07-23T07:03:49.014Z,37.87
2018-07-23T07:06:35.548Z,33.93
2018-07-23T07:09:22.364Z,31.50
2018-07-23T07:12:09.003Z,40.07
2018-07-23T07:14:55.723Z,36.00
2018-07-23T07:17:42.554Z,30.07
2018-07-23T07:20:29.226Z,34.47
2018-07-23T07:23:15.965Z,33.77
2018-07-23T07:26:03.176Z,32.93
2018-07-23T07:28:50.573Z,34.27
2018-07-23T07:31:37.105Z,35.83
2018-07-23T07:34:23.660Z,32.97
2018-07-23T07:37:10.423Z,34.63
2018-07-23T07:39:57.052Z,35.67
2018-07-23T07:42:43.850Z,32.60
2018-07-23T07:45:30.517Z,38.70
2018-07-23T07:48:17.175Z,35.40
2018-07-23T07:51:04.744Z,35.47
2018-07-23T07:53:51.822Z,37.40
2018-07-23T07:56:38.478Z,33.13
2018-07-23T07:59:25.098Z,32.27
2018-07-23T08:02:11.919Z,32.60
2018-07-23T08:04:59.882Z,32.93
2018-07-23T08:07:46.565Z,30.10
2018-07-23T08:10:33.237Z,29.33
2018-07-23T08:13:20.048Z,30.53
2018-07-23T08:16:06.690Z,29.50
2018-07-23T08:18:53.044Z,32.00
2018-07-23T08:21:39.774Z,31.30
2018-07-23T08:24:26.295Z,34.23
2018-07-23T08:27:13.028Z,29.07
2018-07-23T08:29:59.616Z,30.00
2018-07-23T08:32:46.262Z,32.63
2018-07-23T08:35:32.758Z,29.60
2018-07-23T08:38:19.260Z,31.73
2018-07-23T08:41:06.676Z,33.50
2018-07-23T08:43:53.671Z,35.83
2018-07-23T08:46:41.484Z,34.73
2018-07-23T08:49:28.236Z,32.37
2018-07-23T08:52:14.751Z,36.07
2018-07-23T08:55:03.956Z,31.00
2018-07-23T08:57:51.232Z,32.20
2018-07-23T11:57:10.258Z,30.73
